createdAt,value
2018-07-04T00:00:24.837Z,934.50
2018-07-04T00:01:24.869Z,934.47
2018-07-04T00:02:24.859Z,934.44
2018-07-04T00:03:24.893Z,934.45
2018-07-04T00:04:24.993Z,934.40
2018-07-04T00:05:24.910Z,934.38
2018-07-04T00:06:24.928Z,934.42
2018-07-04T00:07:24.947Z,934.44
2018-07-04T00:08:24.934Z,934.39
2018-07-04T00:09:25.064Z,934.41
2018-07-04T00:10:24.971Z,934.41
2018-07-04T00:11:25.002Z,934.46
2018-07-04T00:12:24.993Z,934.46
2018-07-04T00:13:24.992Z,934.47
2018-07-04T00:14:25.132Z,934.47
2018-07-04T00:15:25.054Z,934.47
2018-07-04T00:16:25.051Z,934.44
2018-07-04T00:17:25.085Z,934.48
2018-07-04T00:18:25.085Z,934.51
2018-07-04T00:19:25.212Z,934.56
2018-07-04T00:20:25.108Z,934.57
2018-07-04T00:21:25.105Z,934.58
2018-07-04T00:22:25.127Z,934.58
2018-07-04T00:23:25.130Z,934.58
2018-07-04T00:24:25.271Z,934.57
2018-07-04T00:25:25.168Z,934.58
2018-07-04T00:26:25.170Z,934.53
2018-07-04T00:27:25.208Z,934.58
2018-07-04T00:28:25.185Z,934.60
2018-07-04T00:29:25.307Z,934.60
2018-07-04T00:30:25.218Z,934.61
2018-07-04T00:31:25.242Z,934.60
2018-07-04T00:32:25.245Z,934.61
2018-07-04T00:33:25.249Z,934.60
2018-07-04T00:34:25.421Z,934.60
2018-07-04T00:35:25.284Z,934.61
2018-07-04T00:36:25.296Z,934.62
2018-07-04T00:37:25.314Z,934.60
2018-07-04T00:38:25.329Z,934.62
2018-07-04T00:39:25.535Z,934.59
2018-07-04T00:40:25.348Z,934.57
2018-07-04T00:41:25.367Z,934.63
2018-07-04T00:42:25.364Z,934.62
2018-07-04T00:43:25.383Z,934.62
2018-07-04T00:44:25.482Z,934.61
2018-07-04T00:45:25.409Z,934.62
2018-07-04T00:46:25.431Z,934.62
2018-07-04T00:47:25.418Z,934.59
2018-07-04T00:48:25.430Z,934.59
2018-07-04T00:49:25.578Z,934.56
2018-07-04T00:50:25.464Z,934.57
2018-07-04T00:51:25.479Z,934.56
2018-07-04T00:52:25.473Z,934.55
2018-07-04T00:53:25.509Z,934.57
2018-07-04T00:54:25.526Z,934.56
2018-07-04T00:55:25.689Z,934.54
2018-07-04T00:56:25.550Z,934.54
2018-07-04T00:57:25.549Z,934.55
2018-07-04T00:58:25.554Z,934.54
2018-07-04T00:59:25.592Z,934.57
2018-07-04T01:00:25.686Z,934.58
2018-07-04T01:01:25.601Z,934.55
2018-07-04T01:02:25.626Z,934.53
2018-07-04T01:03:25.629Z,934.52
2018-07-04T01:04:25.690Z,934.49
2018-07-04T01:05:25.636Z,934.54
2018-07-04T01:06:25.763Z,934.49
2018-07-04T01:07:25.668Z,934.51
2018-07-04T01:08:25.696Z,934.51
2018-07-04T01:09:25.696Z,934.51
2018-07-04T01:10:25.719Z,934.46
2018-07-04T01:11:25.836Z,934.52
2018-07-04T01:12:25.733Z,934.48
2018-07-04T01:13:25.744Z,934.47
2018-07-04T01:14:25.809Z,934.46
2018-07-04T01:15:25.776Z,934.45
2018-07-04T01:16:25.889Z,934.48
2018-07-04T01:17:25.846Z,934.42
2018-07-04T01:18:25.809Z,934.42
2018-07-04T01:19:25.841Z,934.46
2018-07-04T01:20:25.850Z,934.43
2018-07-04T01:21:25.849Z,934.45
2018-07-04T01:22:25.965Z,934.44
2018-07-04T01:23:25.880Z,934.41
2018-07-04T01:24:25.892Z,934.39
2018-07-04T01:25:25.948Z,934.43
2018-07-04T01:26:25.953Z,934.37
2018-07-04T01:27:26.067Z,934.39
2018-07-04T01:28:25.931Z,934.41
2018-07-04T01:29:25.938Z,934.41
2018-07-04T01:30:25.965Z,934.41
2018-07-04T01:31:25.970Z,934.38
2018-07-04T01:32:25.973Z,934.36
2018-07-04T01:33:26.040Z,934.33
2018-07-04T01:34:26.019Z,934.34
2018-07-04T01:35:26.177Z,934.35
2018-07-04T01:36:26.021Z,934.36
2018-07-04T01:37:26.051Z,934.33
2018-07-04T01:38:26.058Z,934.34
2018-07-04T01:39:26.069Z,934.34
2018-07-04T01:40:26.185Z,934.34
2018-07-04T01:41:26.111Z,934.36
2018-07-04T01:42:26.098Z,934.34
2018-07-04T01:43:26.134Z,934.38
2018-07-04T01:44:26.136Z,934.37
2018-07-04T01:45:26.242Z,934.40
2018-07-04T01:46:26.158Z,934.36
2018-07-04T01:47:26.170Z,934.39
2018-07-04T01:48:26.171Z,934.40
2018-07-04T01:49:26.188Z,934.38
2018-07-04T01:50:26.305Z,934.37
2018-07-04T01:51:26.205Z,934.35
2018-07-04T01:52:26.229Z,934.35
2018-07-04T01:53:26.238Z,934.36
2018-07-04T01:54:26.305Z,934.33
2018-07-04T01:55:26.365Z,934.35
2018-07-04T01:56:26.273Z,934.31
2018-07-04T01:57:26.297Z,934.34
2018-07-04T01:58:26.309Z,934.32
2018-07-04T01:59:26.324Z,934.35
2018-07-04T02:00:26.421Z,934.39
2018-07-04T02:01:26.334Z,934.41
2018-07-04T02:02:26.348Z,934.40
2018-07-04T02:03:26.368Z,934.45
2018-07-04T02:04:26.393Z,934.45
2018-07-04T02:05:26.483Z,934.45
2018-07-04T02:06:26.411Z,934.49
2018-07-04T02:07:26.452Z,934.45
2018-07-04T02:08:26.409Z,934.45
2018-07-04T02:09:26.445Z,934.49
2018-07-04T02:10:26.558Z,934.47
2018-07-04T02:11:26.462Z,934.47
2018-07-04T02:12:26.480Z,934.46
2018-07-04T02:13:26.473Z,934.45
2018-07-04T02:14:26.510Z,934.42
2018-07-04T02:15:26.598Z,934.45
2018-07-04T02:16:26.517Z,934.44
2018-07-04T02:17:26.553Z,934.43
2018-07-04T02:18:26.554Z,934.44
2018-07-04T02:19:26.563Z,934.48
2018-07-04T02:20:26.720Z,934.48
2018-07-04T02:21:26.579Z,934.47
2018-07-04T02:22:26.602Z,934.52
2018-07-04T02:23:26.650Z,934.49
2018-07-04T02:24:26.628Z,934.50
2018-07-04T02:25:26.718Z,934.45
2018-07-04T02:26:26.650Z,934.47
2018-07-04T02:27:26.647Z,934.47
2018-07-04T02:28:26.659Z,934.45
2018-07-04T02:29:26.683Z,934.46
2018-07-04T02:30:26.750Z,934.44
2018-07-04T02:31:26.697Z,934.39
2018-07-04T02:32:26.719Z,934.40
2018-07-04T02:33:26.722Z,934.39
2018-07-04T02:34:26.848Z,934.39
2018-07-04T02:35:26.745Z,934.38
2018-07-04T02:36:26.777Z,934.41
2018-07-04T02:37:26.792Z,934.39
2018-07-04T02:38:26.788Z,934.39
2018-07-04T02:39:26.919Z,934.37
2018-07-04T02:40:26.817Z,934.38
2018-07-04T02:41:26.821Z,934.39
2018-07-04T02:42:26.847Z,934.36
2018-07-04T02:43:26.861Z,934.39
2018-07-04T02:44:26.983Z,934.41
2018-07-04T02:45:26.875Z,934.41
2018-07-04T02:46:26.878Z,934.40
2018-07-04T02:47:26.924Z,934.39
2018-07-04T02:48:26.929Z,934.42
2018-07-04T02:49:27.038Z,934.41
2018-07-04T02:50:26.948Z,934.41
2018-07-04T02:51:26.955Z,934.41
2018-07-04T02:52:26.974Z,934.43
2018-07-04T02:53:27.002Z,934.41
2018-07-04T02:54:27.090Z,934.42
2018-07-04T02:55:27.009Z,934.44
2018-07-04T02:56:27.042Z,934.42
2018-07-04T02:57:27.034Z,934.40
2018-07-04T02:58:27.049Z,934.38
2018-07-04T02:59:27.160Z,934.35
2018-07-04T03:00:27.104Z,934.38
2018-07-04T03:01:27.063Z,934.32
2018-07-04T03:02:27.101Z,934.32
2018-07-04T03:03:27.097Z,934.30
2018-07-04T03:04:27.206Z,934.32
2018-07-04T03:05:27.113Z,934.31
2018-07-04T03:06:27.135Z,934.32
2018-07-04T03:07:27.156Z,934.32
2018-07-04T03:08:27.160Z,934.28
2018-07-04T03:09:27.280Z,934.27
2018-07-04T03:10:27.190Z,934.31
2018-07-04T03:11:27.204Z,934.28
2018-07-04T03:12:27.228Z,934.28
2018-07-04T03:13:27.223Z,934.29
2018-07-04T03:14:27.299Z,934.30
2018-07-04T03:15:27.253Z,934.27
2018-07-04T03:16:27.251Z,934.29
2018-07-04T03:17:27.267Z,934.29
2018-07-04T03:18:27.278Z,934.33
2018-07-04T03:19:27.394Z,934.28
2018-07-04T03:20:27.322Z,934.29
2018-07-04T03:21:27.341Z,934.30
2018-07-04T03:22:27.353Z,934.26
2018-07-04T03:23:27.367Z,934.29
2018-07-04T03:24:27.461Z,934.28
2018-07-04T03:25:27.358Z,934.28
2018-07-04T03:26:27.388Z,934.27
2018-07-04T03:27:27.388Z,934.27
2018-07-04T03:28:27.399Z,934.29
2018-07-04T03:29:27.507Z,934.31
2018-07-04T03:30:27.413Z,934.31
2018-07-04T03:31:27.439Z,934.31
2018-07-04T03:32:27.449Z,934.31
2018-07-04T03:33:27.474Z,934.25
2018-07-04T03:34:27.585Z,934.25
2018-07-04T03:35:27.501Z,934.25
2018-07-04T03:36:27.503Z,934.25
2018-07-04T03:37:27.555Z,934.25
2018-07-04T03:38:27.534Z,934.29
2018-07-04T03:39:27.661Z,934.28
2018-07-04T03:40:27.558Z,934.23
2018-07-04T03:41:27.555Z,934.24
2018-07-04T03:42:27.596Z,934.25
2018-07-04T03:43:27.629Z,934.29
2018-07-04T03:44:27.686Z,934.28
2018-07-04T03:45:27.611Z,934.29
2018-07-04T03:46:27.614Z,934.33
2018-07-04T03:47:27.636Z,934.29
2018-07-04T03:48:27.649Z,934.31
2018-07-04T03:49:27.756Z,934.31
2018-07-04T03:50:27.663Z,934.34
2018-07-04T03:51:27.667Z,934.30
2018-07-04T03:52:27.681Z,934.30
2018-07-04T03:53:27.698Z,934.24
2018-07-04T03:54:27.815Z,934.29
2018-07-04T03:55:27.722Z,934.25
2018-07-04T03:56:27.732Z,934.28
2018-07-04T03:57:27.745Z,934.26
2018-07-04T03:58:27.754Z,934.30
2018-07-04T03:59:27.898Z,934.30
2018-07-04T04:00:27.804Z,934.32
2018-07-04T04:01:27.796Z,934.31
2018-07-04T04:02:27.793Z,934.31
2018-07-04T04:03:27.818Z,934.32
2018-07-04T04:04:27.832Z,934.30
2018-07-04T04:05:27.951Z,934.25
2018-07-04T04:06:27.863Z,934.26
2018-07-04T04:07:27.884Z,934.22
2018-07-04T04:08:27.868Z,934.21
2018-07-04T04:09:27.889Z,934.23
2018-07-04T04:10:27.957Z,934.24
2018-07-04T04:11:28.017Z,934.17
2018-07-04T04:12:27.950Z,934.22
2018-07-04T04:13:27.950Z,934.21
2018-07-04T04:14:27.975Z,934.20
2018-07-04T04:15:27.973Z,934.14
2018-07-04T04:16:28.128Z,934.13
2018-07-04T04:17:27.988Z,934.15
2018-07-04T04:18:28.007Z,934.15
2018-07-04T04:19:28.000Z,934.16
2018-07-04T04:20:28.017Z,934.13
2018-07-04T04:21:28.185Z,934.16
2018-07-04T04:22:28.039Z,934.11
2018-07-04T04:23:28.058Z,934.11
2018-07-04T04:24:28.081Z,934.10
2018-07-04T04:25:28.088Z,934.07
2018-07-04T04:26:28.195Z,934.04
2018-07-04T04:27:28.106Z,934.07
2018-07-04T04:28:28.115Z,934.04
2018-07-04T04:29:28.127Z,934.05
2018-07-04T04:30:28.129Z,934.02
2018-07-04T04:31:28.254Z,934.05
2018-07-04T04:32:28.217Z,934.04
2018-07-04T04:33:28.223Z,934.02
2018-07-04T04:34:28.187Z,934.02
2018-07-04T04:35:28.245Z,934.01
2018-07-04T04:36:28.323Z,934.02
2018-07-04T04:37:28.209Z,934.02
2018-07-04T04:38:28.227Z,934.03
2018-07-04T04:39:28.250Z,934.07
2018-07-04T04:40:28.260Z,934.07
2018-07-04T04:41:28.376Z,934.05
2018-07-04T04:42:28.402Z,934.03
2018-07-04T04:43:28.296Z,934.04
2018-07-04T04:44:28.294Z,934.00
2018-07-04T04:45:28.332Z,934.03
2018-07-04T04:46:28.436Z,934.01
2018-07-04T04:47:28.337Z,933.99
2018-07-04T04:48:28.346Z,934.01
2018-07-04T04:49:28.366Z,934.04
2018-07-04T04:50:28.421Z,934.01
2018-07-04T04:51:28.483Z,934.00
2018-07-04T04:52:28.395Z,934.03
2018-07-04T04:53:28.415Z,934.03
2018-07-04T04:54:28.530Z,934.03
2018-07-04T04:55:28.450Z,933.99
2018-07-04T04:56:28.439Z,933.98
2018-07-04T04:57:28.480Z,934.00
2018-07-04T04:58:28.496Z,934.00
2018-07-04T04:59:28.602Z,934.02
2018-07-04T05:00:28.514Z,934.00
2018-07-04T05:01:28.517Z,933.99
2018-07-04T05:02:28.523Z,933.95
2018-07-04T05:03:28.529Z,933.94
2018-07-04T05:04:28.633Z,933.95
2018-07-04T05:05:28.555Z,933.95
2018-07-04T05:06:28.574Z,933.92
2018-07-04T05:07:28.572Z,933.91
2018-07-04T05:08:28.595Z,933.91
2018-07-04T05:09:28.617Z,933.87
2018-07-04T05:10:28.719Z,933.84
2018-07-04T05:11:28.641Z,933.85
2018-07-04T05:12:28.644Z,933.86
2018-07-04T05:13:28.648Z,933.85
2018-07-04T05:14:28.676Z,933.86
2018-07-04T05:15:28.796Z,933.82
2018-07-04T05:16:28.705Z,933.78
2018-07-04T05:17:28.719Z,933.81
2018-07-04T05:18:28.724Z,933.79
2018-07-04T05:19:28.721Z,933.77
2018-07-04T05:20:28.845Z,933.73
2018-07-04T05:21:28.756Z,933.76
2018-07-04T05:22:28.775Z,933.75
2018-07-04T05:23:28.775Z,933.74
2018-07-04T05:24:28.786Z,933.73
2018-07-04T05:25:28.796Z,933.73
2018-07-04T05:26:28.926Z,933.77
2018-07-04T05:27:28.822Z,933.74
2018-07-04T05:28:28.842Z,933.75
2018-07-04T05:29:28.851Z,933.71
2018-07-04T05:30:28.856Z,933.71
2018-07-04T05:31:28.982Z,933.72
2018-07-04T05:32:28.873Z,933.68
2018-07-04T05:33:28.899Z,933.68
2018-07-04T05:34:28.921Z,933.70
2018-07-04T05:35:28.930Z,933.71
2018-07-04T05:36:28.988Z,933.75
2018-07-04T05:37:28.960Z,933.73
2018-07-04T05:38:28.976Z,933.75
2018-07-04T05:39:28.974Z,933.71
2018-07-04T05:40:28.967Z,933.72
2018-07-04T05:41:29.133Z,933.72
2018-07-04T05:42:29.024Z,933.69
2018-07-04T05:43:29.022Z,933.70
2018-07-04T05:44:29.092Z,933.71
2018-07-04T05:45:29.042Z,933.72
2018-07-04T05:46:29.146Z,933.74
2018-07-04T05:47:29.067Z,933.73
2018-07-04T05:48:29.089Z,933.68
2018-07-04T05:49:29.089Z,933.70
2018-07-04T05:50:29.098Z,933.70
2018-07-04T05:51:29.213Z,933.70
2018-07-04T05:52:29.129Z,933.68
2018-07-04T05:53:29.146Z,933.65
2018-07-04T05:54:29.166Z,933.66
2018-07-04T05:55:29.173Z,933.69
2018-07-04T05:56:29.282Z,933.69
2018-07-04T05:57:29.212Z,933.68
2018-07-04T05:58:29.199Z,933.68
2018-07-04T05:59:29.209Z,933.66
2018-07-04T06:00:29.223Z,933.62
2018-07-04T06:01:29.295Z,933.60
2018-07-04T06:02:29.253Z,933.60
2018-07-04T06:03:29.277Z,933.59
2018-07-04T06:04:29.326Z,933.54
2018-07-04T06:05:29.299Z,933.58
2018-07-04T06:06:29.395Z,933.61
2018-07-04T06:07:29.312Z,933.62
2018-07-04T06:08:29.329Z,933.62
2018-07-04T06:09:29.329Z,933.66
2018-07-04T06:10:29.329Z,933.66
2018-07-04T06:11:29.494Z,933.64
2018-07-04T06:12:29.368Z,933.63
2018-07-04T06:13:29.370Z,933.62
2018-07-04T06:14:29.384Z,933.60
2018-07-04T06:15:29.416Z,933.63
2018-07-04T06:16:29.458Z,933.59
2018-07-04T06:17:29.412Z,933.59
2018-07-04T06:18:29.545Z,933.59
2018-07-04T06:19:29.464Z,933.59
2018-07-04T06:20:29.473Z,933.58
2018-07-04T06:21:29.483Z,933.58
2018-07-04T06:22:29.498Z,933.52
2018-07-04T06:23:29.572Z,933.57
2018-07-04T06:24:29.555Z,933.58
2018-07-04T06:25:29.524Z,933.58
2018-07-04T06:26:29.539Z,933.54
2018-07-04T06:27:29.563Z,933.54
2018-07-04T06:28:29.650Z,933.53
2018-07-04T06:29:29.585Z,933.59
2018-07-04T06:30:29.598Z,933.60
2018-07-04T06:31:29.607Z,933.58
2018-07-04T06:32:29.697Z,933.53
2018-07-04T06:33:29.630Z,933.56
2018-07-04T06:34:29.733Z,933.56
2018-07-04T06:35:29.654Z,933.54
2018-07-04T06:36:29.665Z,933.49
2018-07-04T06:37:29.662Z,933.47
2018-07-04T06:38:29.682Z,933.48
2018-07-04T06:39:29.802Z,933.48
2018-07-04T06:40:29.703Z,933.51
2018-07-04T06:41:29.766Z,933.49
2018-07-04T06:42:29.748Z,933.51
2018-07-04T06:43:29.731Z,933.52
2018-07-04T06:44:29.883Z,933.54
2018-07-04T06:45:29.767Z,933.54
2018-07-04T06:46:29.794Z,933.53
2018-07-04T06:47:29.849Z,933.46
2018-07-04T06:48:29.859Z,933.48
2018-07-04T06:49:29.830Z,933.48
2018-07-04T06:50:29.944Z,933.46
2018-07-04T06:51:29.842Z,933.45
2018-07-04T06:52:29.847Z,933.40
2018-07-04T06:53:29.855Z,933.44
2018-07-04T06:54:29.966Z,933.51
2018-07-04T06:55:29.999Z,933.54
2018-07-04T06:56:29.892Z,933.58
2018-07-04T06:57:29.928Z,933.58
2018-07-04T06:58:29.936Z,933.55
2018-07-04T06:59:29.939Z,933.56
2018-07-04T07:00:29.952Z,933.55
2018-07-04T07:01:30.077Z,933.56
2018-07-04T07:02:29.963Z,933.60
2018-07-04T07:03:29.991Z,933.66
2018-07-04T07:04:29.998Z,933.68
2018-07-04T07:05:30.021Z,933.66
2018-07-04T07:06:30.137Z,933.67
2018-07-04T07:07:30.046Z,933.60
2018-07-04T07:08:30.105Z,933.63
2018-07-04T07:09:30.075Z,933.61
2018-07-04T07:10:30.073Z,933.64
2018-07-04T07:11:30.172Z,933.61
2018-07-04T07:12:30.153Z,933.62
2018-07-04T07:13:30.096Z,933.62
2018-07-04T07:14:30.179Z,933.57
2018-07-04T07:15:30.137Z,933.53
2018-07-04T07:16:30.254Z,933.51
2018-07-04T07:17:30.157Z,933.48
2018-07-04T07:18:30.185Z,933.42
2018-07-04T07:19:30.182Z,933.44
2018-07-04T07:20:30.203Z,933.45
2018-07-04T07:21:30.320Z,933.42
2018-07-04T07:22:30.215Z,933.44
2018-07-04T07:23:30.275Z,933.42
2018-07-04T07:24:30.294Z,933.42
2018-07-04T07:25:30.264Z,933.42
2018-07-04T07:26:30.361Z,933.44
2018-07-04T07:27:30.307Z,933.47
2018-07-04T07:28:30.279Z,933.50
2018-07-04T07:29:30.298Z,933.49
2018-07-04T07:30:30.310Z,933.50
2018-07-04T07:31:30.432Z,933.53
2018-07-04T07:32:30.350Z,933.53
2018-07-04T07:33:30.420Z,933.55
2018-07-04T07:34:30.367Z,933.57
2018-07-04T07:35:30.385Z,933.57
2018-07-04T07:36:30.511Z,933.57
2018-07-04T07:37:30.450Z,933.56
2018-07-04T07:38:30.514Z,933.58
2018-07-04T07:39:30.417Z,933.58
2018-07-04T07:40:30.443Z,933.55
2018-07-04T07:41:30.439Z,933.57
2018-07-04T07:42:30.478Z,933.56
2018-07-04T07:43:30.574Z,933.57
2018-07-04T07:44:30.495Z,933.54
2018-07-04T07:45:30.499Z,933.52
2018-07-04T07:46:30.558Z,933.52
2018-07-04T07:47:30.537Z,933.49
2018-07-04T07:48:30.589Z,933.52
2018-07-04T07:49:30.555Z,933.51
2018-07-04T07:50:30.676Z,933.48
2018-07-04T07:51:30.572Z,933.49
2018-07-04T07:52:30.598Z,933.51
2018-07-04T07:53:30.598Z,933.49
2018-07-04T07:54:30.671Z,933.50
2018-07-04T07:55:30.717Z,933.44
2018-07-04T07:56:30.629Z,933.48
2018-07-04T07:57:30.635Z,933.40
2018-07-04T07:58:30.660Z,933.46
2018-07-04T07:59:30.660Z,933.48
2018-07-04T08:00:30.779Z,933.50
2018-07-04T08:01:30.707Z,933.50
2018-07-04T08:02:30.699Z,933.52
2018-07-04T08:03:30.730Z,933.48
2018-07-04T08:04:30.743Z,933.49
2018-07-04T08:05:30.751Z,933.48
2018-07-04T08:06:30.947Z,933.50
2018-07-04T08:07:30.768Z,933.46
2018-07-04T08:08:30.785Z,933.47
2018-07-04T08:09:30.785Z,933.49
2018-07-04T08:10:30.811Z,933.45
2018-07-04T08:11:30.925Z,933.44
2018-07-04T08:12:30.817Z,933.42
2018-07-04T08:13:30.830Z,933.41
2018-07-04T08:14:30.855Z,933.36
2018-07-04T08:15:30.855Z,933.36
2018-07-04T08:16:31.030Z,933.33
2018-07-04T08:17:30.889Z,933.37
2018-07-04T08:18:30.920Z,933.39
2018-07-04T08:19:30.956Z,933.39
2018-07-04T08:20:30.937Z,933.36
2018-07-04T08:21:30.939Z,933.39
2018-07-04T08:22:31.071Z,933.44
2018-07-04T08:23:30.979Z,933.43
2018-07-04T08:24:30.968Z,933.42
2018-07-04T08:25:30.987Z,933.42
2018-07-04T08:26:30.995Z,933.39
2018-07-04T08:27:31.160Z,933.42
2018-07-04T08:28:31.026Z,933.40
2018-07-04T08:29:31.033Z,933.43
2018-07-04T08:30:31.051Z,933.43
2018-07-04T08:31:31.072Z,933.46
2018-07-04T08:32:31.060Z,933.48
2018-07-04T08:33:31.275Z,933.47
2018-07-04T08:34:31.094Z,933.48
2018-07-04T08:35:31.106Z,933.53
2018-07-04T08:36:31.135Z,933.51
2018-07-04T08:37:31.127Z,933.55
2018-07-04T08:38:31.245Z,933.57
2018-07-04T08:39:31.170Z,933.58
2018-07-04T08:40:31.161Z,933.55
2018-07-04T08:41:31.195Z,933.59
2018-07-04T08:42:31.199Z,933.60
2018-07-04T08:43:31.322Z,933.60
2018-07-04T08:44:31.219Z,933.61
2018-07-04T08:45:31.247Z,933.57
2018-07-04T08:46:31.263Z,933.56
2018-07-04T08:47:31.298Z,933.55
2018-07-04T08:48:31.431Z,933.61
2018-07-04T08:49:31.269Z,933.65
2018-07-04T08:50:31.292Z,933.68
2018-07-04T08:51:31.307Z,933.66
2018-07-04T08:52:31.381Z,933.64
2018-07-04T08:53:31.467Z,933.61
2018-07-04T08:54:31.343Z,933.64
2018-07-04T08:55:31.352Z,933.64
2018-07-04T08:56:31.358Z,933.65
2018-07-04T08:57:31.388Z,933.66
2018-07-04T08:58:31.485Z,933.73
2018-07-04T08:59:31.395Z,933.71
2018-07-04T09:00:31.428Z,933.67
2018-07-04T09:01:31.440Z,933.66
2018-07-04T09:02:31.439Z,933.64
2018-07-04T09:03:31.599Z,933.61
2018-07-04T09:04:31.477Z,933.60
2018-07-04T09:05:31.499Z,933.60
2018-07-04T09:06:31.479Z,933.57
2018-07-04T09:07:31.505Z,933.50
2018-07-04T09:08:31.607Z,933.47
2018-07-04T09:09:31.539Z,933.47
2018-07-04T09:10:31.551Z,933.48
2018-07-04T09:11:31.587Z,933.56
2018-07-04T09:12:31.561Z,933.58
2018-07-04T09:13:31.669Z,933.63
2018-07-04T09:14:31.594Z,933.62
2018-07-04T09:15:31.593Z,933.56
2018-07-04T09:16:31.613Z,933.56
2018-07-04T09:17:31.661Z,933.56
2018-07-04T09:18:31.631Z,933.49
2018-07-04T09:19:31.741Z,933.51
2018-07-04T09:20:31.659Z,933.50
2018-07-04T09:21:31.661Z,933.48
2018-07-04T09:22:31.687Z,933.49
2018-07-04T09:23:31.695Z,933.51
2018-07-04T09:24:31.822Z,933.48
2018-07-04T09:25:31.711Z,933.49
2018-07-04T09:26:31.727Z,933.44
2018-07-04T09:27:31.739Z,933.43
2018-07-04T09:28:31.759Z,933.40
2018-07-04T09:29:31.868Z,933.39
2018-07-04T09:30:31.830Z,933.40
2018-07-04T09:31:31.798Z,933.42
2018-07-04T09:32:31.884Z,933.41
2018-07-04T09:33:31.828Z,933.43
2018-07-04T09:34:31.849Z,933.38
2018-07-04T09:35:32.005Z,933.33
2018-07-04T09:36:31.868Z,933.27
2018-07-04T09:37:31.860Z,933.26
2018-07-04T09:38:31.895Z,933.18
2018-07-04T09:39:31.894Z,933.09
2018-07-04T09:40:32.005Z,933.02
2018-07-04T09:41:31.917Z,932.96
2018-07-04T09:42:31.940Z,932.90
2018-07-04T09:43:31.935Z,932.90
2018-07-04T09:44:31.954Z,932.96
2018-07-04T09:45:32.059Z,932.96
2018-07-04T09:46:31.982Z,933.00
2018-07-04T09:47:31.982Z,933.04
2018-07-04T09:48:31.998Z,933.06
2018-07-04T09:49:32.200Z,933.06
2018-07-04T09:50:32.026Z,933.09
2018-07-04T09:51:32.087Z,933.13
2018-07-04T09:52:32.051Z,933.17
2018-07-04T09:53:32.069Z,933.20
2018-07-04T09:54:32.175Z,933.21
2018-07-04T09:55:32.091Z,933.20
2018-07-04T09:56:32.088Z,933.26
2018-07-04T09:57:32.103Z,933.32
2018-07-04T09:58:32.125Z,933.42
2018-07-04T09:59:32.239Z,933.45
2018-07-04T10:00:32.138Z,933.57
2018-07-04T10:01:32.172Z,933.66
2018-07-04T10:02:32.165Z,933.74
2018-07-04T10:03:32.203Z,933.81
2018-07-04T10:04:32.298Z,933.92
2018-07-04T10:05:32.249Z,933.99
2018-07-04T10:06:32.238Z,934.07
2018-07-04T10:07:32.280Z,934.17
2018-07-04T10:08:32.252Z,934.22
2018-07-04T10:09:32.356Z,934.20
2018-07-04T10:10:32.259Z,934.18
2018-07-04T10:11:32.270Z,934.21
2018-07-04T10:12:32.352Z,934.20
2018-07-04T10:13:32.304Z,934.28
2018-07-04T10:14:32.412Z,934.31
2018-07-04T10:15:32.332Z,934.33
2018-07-04T10:16:32.338Z,934.35
2018-07-04T10:17:32.360Z,934.36
2018-07-04T10:18:32.367Z,934.36
2018-07-04T10:19:32.443Z,934.38
2018-07-04T10:20:32.440Z,934.37
2018-07-04T10:21:32.435Z,934.39
2018-07-04T10:22:32.532Z,934.41
2018-07-04T10:23:32.433Z,934.40
2018-07-04T10:24:32.525Z,934.42
2018-07-04T10:25:32.453Z,934.40
2018-07-04T10:26:32.458Z,934.39
2018-07-04T10:27:32.618Z,934.39
2018-07-04T10:28:32.498Z,934.34
2018-07-04T10:29:32.495Z,934.32
2018-07-04T10:30:32.533Z,934.29
2018-07-04T10:31:32.521Z,934.23
2018-07-04T10:32:32.640Z,934.27
2018-07-04T10:33:32.556Z,934.25
2018-07-04T10:34:32.579Z,934.32
2018-07-04T10:35:32.577Z,934.39
2018-07-04T10:36:32.584Z,934.46
2018-07-04T10:37:32.760Z,934.50
2018-07-04T10:38:32.664Z,934.50
2018-07-04T10:39:32.627Z,934.48
2018-07-04T10:40:32.644Z,934.45
2018-07-04T10:41:32.662Z,934.42
2018-07-04T10:42:32.754Z,934.46
2018-07-04T10:43:32.679Z,934.43
2018-07-04T10:44:32.677Z,934.49
2018-07-04T10:45:32.698Z,934.43
2018-07-04T10:46:32.706Z,934.40
2018-07-04T10:47:32.820Z,934.40
2018-07-04T10:48:32.729Z,934.41
2018-07-04T10:49:32.769Z,934.40
2018-07-04T10:50:32.764Z,934.39
2018-07-04T10:51:32.776Z,934.43
2018-07-04T10:52:32.880Z,934.42
2018-07-04T10:53:32.794Z,934.45
2018-07-04T10:54:32.841Z,934.45
2018-07-04T10:55:32.844Z,934.45
2018-07-04T10:56:32.844Z,934.48
2018-07-04T10:57:33.000Z,934.51
2018-07-04T10:58:32.932Z,934.52
2018-07-04T10:59:32.872Z,934.51
2018-07-04T11:00:32.891Z,934.56
2018-07-04T11:01:32.894Z,934.58
2018-07-04T11:02:33.041Z,934.58
2018-07-04T11:03:32.949Z,934.58
2018-07-04T11:04:32.996Z,934.62
2018-07-04T11:05:32.952Z,934.58
2018-07-04T11:06:32.985Z,934.52
2018-07-04T11:07:33.095Z,934.53
2018-07-04T11:08:32.991Z,934.53
2018-07-04T11:09:33.017Z,934.60
2018-07-04T11:10:33.006Z,934.64
2018-07-04T11:11:33.026Z,934.65
2018-07-04T11:12:33.143Z,934.67
2018-07-04T11:13:33.041Z,934.63
2018-07-04T11:14:33.121Z,934.60
2018-07-04T11:15:33.104Z,934.56
2018-07-04T11:16:33.145Z,934.53
2018-07-04T11:17:33.251Z,934.54
2018-07-04T11:18:33.123Z,934.52
2018-07-04T11:19:33.121Z,934.53
2018-07-04T11:20:33.149Z,934.53
2018-07-04T11:21:33.172Z,934.48
2018-07-04T11:22:33.285Z,934.46
2018-07-04T11:23:33.182Z,934.43
2018-07-04T11:24:33.192Z,934.47
2018-07-04T11:25:33.209Z,934.49
2018-07-04T11:26:33.277Z,934.57
2018-07-04T11:27:33.433Z,934.55
2018-07-04T11:28:33.401Z,934.56
2018-07-04T11:29:33.255Z,934.55
2018-07-04T11:30:33.275Z,934.49
2018-07-04T11:31:33.288Z,934.55
2018-07-04T11:32:33.390Z,934.49
2018-07-04T11:33:33.312Z,934.58
2018-07-04T11:34:33.317Z,934.52
2018-07-04T11:35:33.352Z,934.54
2018-07-04T11:36:33.344Z,934.59
2018-07-04T11:37:33.479Z,934.56
2018-07-04T11:38:33.390Z,934.61
2018-07-04T11:39:33.387Z,934.63
2018-07-04T11:40:33.428Z,934.64
2018-07-04T11:41:33.441Z,934.65
2018-07-04T11:42:33.583Z,934.68
2018-07-04T11:43:33.453Z,934.69
2018-07-04T11:44:33.497Z,934.68
2018-07-04T11:45:33.475Z,934.69
2018-07-04T11:46:33.491Z,934.66
2018-07-04T11:47:33.611Z,934.62
2018-07-04T11:48:33.523Z,934.63
2018-07-04T11:49:33.593Z,934.63
2018-07-04T11:50:33.562Z,934.63
2018-07-04T11:51:33.559Z,934.68
2018-07-04T11:52:33.591Z,934.70
2018-07-04T11:53:33.746Z,934.68
2018-07-04T11:54:33.608Z,934.72
2018-07-04T11:55:33.616Z,934.72
2018-07-04T11:56:33.703Z,934.69
2018-07-04T11:57:33.651Z,934.72
2018-07-04T11:58:33.766Z,934.71
2018-07-04T11:59:33.687Z,934.68
2018-07-04T12:00:33.688Z,934.65
2018-07-04T12:01:33.711Z,934.71
2018-07-04T12:02:33.715Z,934.64
2018-07-04T12:03:33.861Z,934.68
2018-07-04T12:04:33.740Z,934.71
2018-07-04T12:05:33.814Z,934.70
2018-07-04T12:06:33.794Z,934.69
2018-07-04T12:07:33.789Z,934.68
2018-07-04T12:08:33.816Z,934.64
2018-07-04T12:09:33.923Z,934.64
2018-07-04T12:10:33.836Z,934.61
2018-07-04T12:11:33.863Z,934.71
2018-07-04T12:12:33.873Z,934.65
2018-07-04T12:13:33.877Z,934.63
2018-07-04T12:14:34.004Z,934.61
2018-07-04T12:15:33.910Z,934.63
2018-07-04T12:16:33.934Z,934.61
2018-07-04T12:17:33.967Z,934.66
2018-07-04T12:18:33.979Z,934.60
2018-07-04T12:19:34.122Z,934.72
2018-07-04T12:20:33.982Z,934.70
2018-07-04T12:21:34.000Z,934.73
2018-07-04T12:22:34.028Z,934.73
2018-07-04T12:23:34.049Z,934.79
2018-07-04T12:24:34.262Z,934.80
2018-07-04T12:25:34.077Z,934.76
2018-07-04T12:26:34.099Z,934.77
2018-07-04T12:27:34.117Z,934.77
2018-07-04T12:28:34.116Z,934.76